North Fenton, New York
Current Conditions -  °F | °C
As of 4:53 AM on Thursday 18 Dec 2014 (Local Time) from KBGM Reporting Station
Overcast Overcast  
Wind Chill: 17°   Ceiling: 2000
Heat Index: 29°   Visibility: 10mi
Dew Point: 22°   Wind: 16mph
Humidity: 75%   Direction: 300°WNW
Pressure: 29.91"   Gusts: 24mph
Location:  42.2703°N, 75.7752°W
Report Text: KBGM 180953Z AUTO 30014G21KT 10SM OVC020 M02/M06 A2991 RMK AO2 SLP146 T10171056
Loading
Personal Weather Stations






























Interactive Weather Map New forecast layout! Learn more

10-Day Weather Forecast

Advertisements
Track Severe Weather on mobile